KSVC/SVC METAR and TAF weather

Enter ICAO airport designator
Station Type Date Time Source
KSVC METAR 2019/12/11 12:15 UTC NOAA

KSVC 111215Z AUTO 35006KT 10SM CLR M01/M01 A3031 RMK AO2 T10071015


Station Type Date Time Source
KSVC Decoded METAR 2019/12/11 12:15 UTC NOAA

Silver City / Grant, NM, United States (KSVC) 32-38N 108-09W
Dec 11, 2019 - 07:15 AM EST / 2019.12.11 1215 UTC
Wind: from the N (350 degrees) at 7 MPH (6 KT):0
Visibility: 10 mile(s):0
Sky conditions: clear
Temperature: 30.7 F (-0.7 C)
Windchill: 24 F (-4 C):1
Dew Point: 29.3 F (-1.5 C)
Relative Humidity: 94%
Pressure (altimeter): 30.31 in. Hg (1026 hPa)
ob: KSVC 111215Z AUTO 35006KT 10SM CLR M01/M01 A3031 RMK AO2 T10071015
cycle: 12

Station Type Date Time Source
KSVC TAF UTC NOAA

Error!

Example: see airport list